Main page
METAR-TAF:

METAR-TAF

Airports :

Houari Boumediene Airport

Algiers, Algeria

latitude: 36-43N, longitude: 003-15E, elevation: 25 m

Current weather observation

The report was made 37 minutes ago, at 12:30 UTC
Wind 9 kt from the West/Northwest, varying between West and North/Northwest
Temperature 22°C
Humidity 43%
Pressure 1016 hPa
Visibility 10 km or more
Few clouds at a height of 2600 ft

METAR: DAAG 211230Z 29009KT 260V330 9999 FEW026 22/09 Q1016

Time: 14:07 (13:07 UTC)

Forecast

The report was made 2 hours and 7 minutes ago, at 11:00 UTC
Forecast valid from 21 at 12 UTC to 22 at 12 UTC
Wind 10 kt from the West
Visibility 10 km or more
Few clouds at a height of 2600 ft
Becoming
from 21 at 17 UTC to 21 at 19 UTC
Wind 2 kt from variable directions

TAF: DAAG 211100Z 2112/2212 28010KT 9999 FEW026 BECMG 2117/2119 VRB02KT

Weather observations and forecasts of more than 4000 airports (METAR and TAF reports).

The available stations are represented by yellow and red dots on the map.

Hover mouse over dot to see the name of the station.

Then click to see weather observations and forecasts.

To change the map : click on the green buttons with a black cross to zoom in, on the green button with a dash to zoom out, or on the green arrows for adjacent maps.


METAR-TAF: